Time;durP1;ratioP1;P1;durP2;ratioP2;P2;SDS_P1;SDS_P2;PMS_P1;PMS_P2;Temp;Humidity;BMP_temperature;BMP_pressure;BME280_temperature;BME280_humidity;BME280_pressure;Samples;Min_cycle;Max_cycle;Signal;HPM_P1;HPM_P2
2022/10/17 00:00:39;;;;;;;8.65;4.00;;;12.00;90.20;;;;;;5030128;28;20033;-46
2022/10/17 00:03:07;;;;;;;10.15;4.35;;;12.00;90.10;;;;;;5029404;28;20029;-46
2022/10/17 00:05:39;;;;;;;10.32;5.22;;;12.00;90.10;;;;;;5031985;28;20096;-46
2022/10/17 00:08:09;;;;;;;6.70;4.28;;;12.00;90.10;;;;;;5031980;28;20025;-46
2022/10/17 00:10:36;;;;;;;6.00;4.00;;;12.00;90.10;;;;;;5031186;28;20026;-48
2022/10/17 00:13:03;;;;;;;9.48;4.43;;;12.00;90.20;;;;;;5032151;28;20473;-46
2022/10/17 00:15:29;;;;;;;6.63;3.88;;;12.00;90.20;;;;;;5031522;28;20438;-46
2022/10/17 00:18:00;;;;;;;15.95;4.75;;;12.00;90.20;;;;;;5029815;28;20049;-46
2022/10/17 00:20:29;;;;;;;5.90;3.55;;;12.00;90.30;;;;;;5035342;28;20026;-48
2022/10/17 00:22:56;;;;;;;9.35;4.38;;;12.00;90.30;;;;;;5035576;28;20145;-48
2022/10/17 00:25:23;;;;;;;9.18;4.55;;;11.90;90.30;;;;;;5033069;28;20022;-46
2022/10/17 00:27:50;;;;;;;7.63;3.97;;;11.90;90.30;;;;;;5030873;28;20037;-48
2022/10/17 00:30:17;;;;;;;7.88;3.80;;;11.90;90.40;;;;;;5034934;28;20382;-46
2022/10/17 00:32:44;;;;;;;8.85;4.63;;;11.90;90.40;;;;;;5034123;28;20049;-46
2022/10/17 00:35:10;;;;;;;9.35;4.55;;;11.80;90.40;;;;;;5033754;28;20350;-46
2022/10/17 00:37:37;;;;;;;9.13;4.00;;;11.80;90.40;;;;;;5031628;28;20037;-48
2022/10/17 00:40:06;;;;;;;8.15;4.63;;;11.80;90.40;;;;;;5029585;28;20036;-49
2022/10/17 00:42:33;;;;;;;8.65;4.03;;;11.70;90.50;;;;;;5034169;28;20080;-48
2022/10/17 00:45:24;;;;;;;10.70;4.65;;;11.60;90.60;;;;;;5039813;28;20094;-45
2022/10/17 00:48:02;;;;;;;9.20;3.72;;;11.60;90.70;;;;;;5053850;28;20064;-47
2022/10/17 00:50:32;;;;;;;11.60;4.07;;;11.60;90.70;;;;;;5050481;28;20031;-48
2022/10/17 00:53:01;;;;;;;11.15;4.80;;;11.60;90.70;;;;;;5053805;28;20036;-48
2022/10/17 00:55:34;;;;;;;8.07;4.15;;;11.50;90.90;;;;;;5051782;28;20067;-47
2022/10/17 00:58:02;;;;;;;8.93;3.92;;;11.60;90.90;;;;;;5054588;28;20033;-47
2022/10/17 01:00:29;;;;;;;8.07;4.03;;;11.60;90.90;;;;;;5034262;28;20339;-47
2022/10/17 01:02:56;;;;;;;9.05;3.67;;;11.50;90.90;;;;;;5020369;28;20036;-46
2022/10/17 01:05:23;;;;;;;9.13;3.78;;;11.50;90.90;;;;;;5051031;28;20021;-46
2022/10/17 01:07:54;;;;;;;8.18;3.78;;;11.50;90.90;;;;;;5019850;28;20035;-46
2022/10/17 01:10:23;;;;;;;12.52;3.13;;;11.40;90.90;;;;;;5050886;28;20098;-49
2022/10/17 01:13:14;;;;;;;8.30;3.55;;;11.40;90.90;;;;;;5050901;28;20063;-48
2022/10/17 01:16:32;;;;;;;8.70;3.85;;;11.40;91.10;;;;;;5017944;28;20055;-46
2022/10/17 01:19:24;;;;;;;9.48;4.13;;;11.40;91.20;;;;;;5015389;28;20045;-46
2022/10/17 01:21:59;;;;;;;9.05;4.13;;;11.40;91.40;;;;;;5033564;28;20042;-49
2022/10/17 01:24:59;;;;;;;8.30;3.22;;;11.40;91.50;;;;;;5033534;28;20081;-49
2022/10/17 01:27:46;;;;;;;9.35;3.15;;;11.50;91.60;;;;;;5038954;28;20100;-46
2022/10/17 01:30:36;;;;;;;6.40;3.03;;;11.60;91.60;;;;;;5052342;28;20029;-46
2022/10/17 01:33:02;;;;;;;6.03;3.03;;;11.60;91.70;;;;;;5051972;28;20078;-48
2022/10/17 01:35:45;;;;;;;7.50;3.35;;;11.70;91.80;;;;;;5043983;28;20021;-46
2022/10/17 01:38:26;;;;;;;7.38;3.47;;;11.80;91.70;;;;;;5050134;28;20037;-46
2022/10/17 01:40:54;;;;;;;16.83;4.63;;;11.80;91.60;;;;;;5051762;28;20460;-48
2022/10/17 01:43:58;;;;;;;9.73;3.83;;;11.80;91.60;;;;;;5046156;28;20316;-46
2022/10/17 01:46:30;;;;;;;13.65;4.15;;;11.80;91.40;;;;;;4991643;28;20041;-50
2022/10/17 01:49:00;;;;;;;9.25;3.60;;;11.80;91.30;;;;;;5008706;28;20038;-48
2022/10/17 01:51:50;;;;;;;10.60;3.83;;;11.80;91.20;;;;;;5011013;28;20040;-46
2022/10/17 01:54:34;;;;;;;9.15;3.00;;;11.80;91.10;;;;;;5032320;28;20033;-47
2022/10/17 01:57:06;;;;;;;12.45;4.13;;;11.80;91.10;;;;;;5033933;28;20033;-46
2022/10/17 01:59:43;;;;;;;11.85;4.47;;;11.90;91.10;;;;;;5004623;28;20037;-48
2022/10/17 02:02:15;;;;;;;7.90;3.10;;;11.90;91.20;;;;;;5032579;28;20386;-48
2022/10/17 02:04:43;;;;;;;10.40;3.72;;;11.90;91.10;;;;;;5032386;28;20041;-46
2022/10/17 02:07:12;;;;;;;8.90;3.67;;;12.00;91.20;;;;;;4999677;28;20040;-47
2022/10/17 02:09:39;;;;;;;8.10;4.57;;;12.00;91.20;;;;;;5033618;28;20041;-48
2022/10/17 02:12:38;;;;;;;8.85;4.05;;;12.10;91.20;;;;;;5032210;28;20343;-49
2022/10/17 02:15:25;;;;;;;7.93;3.90;;;12.20;91.10;;;;;;5032801;28;20026;-48
2022/10/17 02:18:12;;;;;;;8.13;3.83;;;12.20;91.00;;;;;;5030496;28;20040;-50
2022/10/17 02:20:52;;;;;;;7.47;3.60;;;12.40;90.80;;;;;;5031353;28;20082;-46
2022/10/17 02:23:20;;;;;;;10.05;3.53;;;12.40;90.60;;;;;;5033081;28;20450;-48
2022/10/17 02:26:15;;;;;;;8.27;3.90;;;12.40;90.60;;;;;;5032075;28;20092;-48
2022/10/17 02:29:15;;;;;;;8.82;3.63;;;12.50;90.40;;;;;;5031246;28;20692;-47
2022/10/17 02:32:05;;;;;;;8.20;3.83;;;12.50;90.30;;;;;;5003630;28;20455;-46
2022/10/17 02:34:38;;;;;;;;;;;12.50;90.20;;;;;;5028150;28;20091;-47
2022/10/17 02:37:08;;;;;;;12.43;3.75;;;12.50;90.20;;;;;;5031764;28;19913;-47
2022/10/17 02:39:37;;;;;;;7.85;3.67;;;12.50;90.20;;;;;;5031794;28;20455;-47
2022/10/17 02:42:08;;;;;;;7.80;3.45;;;12.50;90.10;;;;;;5011511;28;20025;-47
2022/10/17 02:44:36;;;;;;;10.35;3.35;;;12.60;90.00;;;;;;5008753;28;20549;-47
2022/10/17 02:47:39;;;;;;;11.55;3.25;;;12.60;89.80;;;;;;5038804;28;20119;-46
2022/10/17 02:50:06;;;;;;;11.18;3.85;;;12.60;89.80;;;;;;5032430;28;20033;-47
2022/10/17 02:52:54;;;;;;;14.18;4.57;;;12.60;89.80;;;;;;5032547;28;20347;-47
2022/10/17 02:55:31;;;;;;;7.38;3.50;;;12.60;89.90;;;;;;5032608;28;20147;-49
2022/10/17 02:58:04;;;;;;;9.30;4.22;;;12.70;89.90;;;;;;5018057;28;20056;-49
2022/10/17 03:00:32;;;;;;;6.45;4.05;;;12.70;89.90;;;;;;5014518;28;20035;-48
2022/10/17 03:02:58;;;;;;;12.75;4.47;;;12.70;89.80;;;;;;5043031;28;20090;-48
2022/10/17 03:05:26;;;;;;;8.18;4.80;;;12.70;89.70;;;;;;5050400;28;20477;-47
2022/10/17 03:07:54;;;;;;;8.35;3.55;;;12.70;89.70;;;;;;5015502;28;20099;-47
2022/10/17 03:10:21;;;;;;;9.05;4.20;;;12.70;89.70;;;;;;5013074;28;20109;-47
2022/10/17 03:12:47;;;;;;;7.00;4.47;;;12.60;89.70;;;;;;5004888;28;20033;-47
2022/10/17 03:15:14;;;;;;;6.75;4.05;;;12.60;89.70;;;;;;5013366;28;20636;-48
2022/10/17 03:17:41;;;;;;;9.05;4.50;;;12.60;89.80;;;;;;5039258;28;20072;-48
2022/10/17 03:20:11;;;;;;;8.98;3.70;;;12.60;89.80;;;;;;5044341;28;20056;-48
2022/10/17 03:22:38;;;;;;;7.47;4.28;;;12.50;89.80;;;;;;5031167;28;20033;-46
2022/10/17 03:25:05;;;;;;;10.75;4.75;;;12.50;89.90;;;;;;5031932;28;20029;-47
2022/10/17 03:27:32;;;;;;;13.07;5.93;;;12.50;90.00;;;;;;5031892;28;20029;-46
2022/10/17 03:29:59;;;;;;;7.70;4.93;;;12.50;90.10;;;;;;5037584;28;20446;-47
2022/10/17 03:32:25;;;;;;;8.27;5.30;;;12.50;90.20;;;;;;5023340;28;20094;-47
2022/10/17 03:34:52;;;;;;;10.57;5.68;;;12.50;90.30;;;;;;5010494;28;20022;-47
2022/10/17 03:37:19;;;;;;;11.20;5.18;;;12.50;90.30;;;;;;4995252;28;20083;-47
2022/10/17 03:39:45;;;;;;;7.28;5.03;;;12.40;90.30;;;;;;5029218;28;20034;-46
2022/10/17 03:42:14;;;;;;;6.40;4.53;;;12.40;90.40;;;;;;5032134;28;20072;-47
2022/10/17 03:44:42;;;;;;;13.90;5.28;;;12.40;90.50;;;;;;5029540;28;20108;-49
2022/10/17 03:47:07;;;;;;;11.90;5.28;;;12.40;90.50;;;;;;5011714;28;20144;-46
2022/10/17 03:49:34;;;;;;;6.60;4.97;;;12.40;90.70;;;;;;5026346;28;20104;-46
2022/10/17 03:52:00;;;;;;;12.73;6.18;;;12.40;90.70;;;;;;5024397;28;20037;-50
2022/10/17 03:54:27;;;;;;;8.50;4.78;;;12.40;90.80;;;;;;5033900;28;20451;-48
2022/10/17 03:56:54;;;;;;;11.98;5.65;;;12.40;90.80;;;;;;5034650;28;20049;-47
2022/10/17 03:59:21;;;;;;;9.07;4.50;;;12.40;90.80;;;;;;5034729;28;20049;-47
2022/10/17 04:01:48;;;;;;;7.82;4.13;;;12.40;90.90;;;;;;5002605;28;20022;-47
2022/10/17 04:04:15;;;;;;;6.70;4.70;;;12.30;90.90;;;;;;5014952;28;20394;-48
2022/10/17 04:06:43;;;;;;;10.93;5.50;;;12.30;91.10;;;;;;5014236;28;20180;-47
2022/10/17 04:09:10;;;;;;;11.48;5.63;;;12.30;91.20;;;;;;4998220;28;20029;-47
2022/10/17 04:11:36;;;;;;;6.60;5.40;;;12.30;91.30;;;;;;5028672;28;20350;-46
2022/10/17 04:14:03;;;;;;;10.82;5.45;;;12.30;91.40;;;;;;5022420;28;20028;-46
2022/10/17 04:16:30;;;;;;;7.30;5.10;;;12.20;91.40;;;;;;5020267;28;20056;-47
2022/10/17 04:18:58;;;;;;;7.55;6.00;;;12.30;91.50;;;;;;5010124;28;20053;-46
2022/10/17 04:21:27;;;;;;;10.27;6.32;;;12.30;91.70;;;;;;5024016;28;20033;-47
2022/10/17 04:23:59;;;;;;;9.02;5.97;;;12.30;91.90;;;;;;5003007;28;20025;-47
2022/10/17 04:26:30;;;;;;;9.73;6.78;;;12.40;91.90;;;;;;5034142;28;20026;-46
2022/10/17 04:28:57;;;;;;;10.50;6.70;;;12.40;91.90;;;;;;5034565;28;20168;-47
2022/10/17 04:31:23;;;;;;;12.00;7.43;;;12.40;91.80;;;;;;5030383;28;20033;-47
2022/10/17 04:33:50;;;;;;;12.55;7.65;;;12.40;91.90;;;;;;5014957;28;20022;-47
2022/10/17 04:36:17;;;;;;;11.15;7.82;;;12.40;91.90;;;;;;4995959;28;20466;-47
2022/10/17 04:38:48;;;;;;;11.02;7.93;;;12.40;92.00;;;;;;5019898;28;20061;-46
2022/10/17 04:41:17;;;;;;;10.18;6.97;;;12.40;92.00;;;;;;4997438;28;20061;-49
2022/10/17 04:43:47;;;;;;;11.25;7.40;;;12.40;92.00;;;;;;5014714;28;20348;-46
2022/10/17 04:46:14;;;;;;;10.40;7.60;;;12.40;92.00;;;;;;5023603;28;163650;-47
2022/10/17 04:48:40;;;;;;;10.18;8.38;;;12.40;92.00;;;;;;5021475;28;20029;-48
2022/10/17 04:51:11;;;;;;;14.35;8.63;;;12.40;92.10;;;;;;5026312;28;20112;-49
2022/10/17 04:53:39;;;;;;;10.85;8.90;;;12.40;92.10;;;;;;5055190;28;20119;-46
2022/10/17 04:56:12;;;;;;;15.80;9.52;;;12.40;92.20;;;;;;5054864;28;20398;-50
2022/10/17 04:58:42;;;;;;;10.55;8.60;;;12.40;92.20;;;;;;5035496;28;20104;-49
2022/10/17 05:01:14;;;;;;;11.30;9.57;;;12.40;92.30;;;;;;5052045;28;20033;-48
2022/10/17 05:03:42;;;;;;;13.98;9.60;;;12.40;92.40;;;;;;5036172;28;20025;-52
2022/10/17 05:06:15;;;;;;;13.68;11.25;;;12.40;92.40;;;;;;5049783;28;20029;-46
2022/10/17 05:08:43;;;;;;;11.63;10.35;;;12.40;92.50;;;;;;5036689;28;20021;-48
2022/10/17 05:11:21;;;;;;;14.27;11.07;;;12.40;92.60;;;;;;5053533;28;20025;-50
2022/10/17 05:14:00;;;;;;;14.13;10.63;;;12.40;92.60;;;;;;5052315;28;20028;-47
2022/10/17 05:16:28;;;;;;;17.48;11.05;;;12.50;92.60;;;;;;5041645;28;20030;-47
2022/10/17 05:18:57;;;;;;;13.02;11.63;;;12.50;92.60;;;;;;5017277;28;20047;-47
2022/10/17 05:21:26;;;;;;;13.95;10.75;;;12.50;92.70;;;;;;5045171;28;20036;-50
2022/10/17 05:23:53;;;;;;;13.52;10.65;;;12.50;92.70;;;;;;5053155;28;20017;-49
2022/10/17 05:26:23;;;;;;;14.57;11.18;;;12.50;92.80;;;;;;5051661;28;20043;-50
2022/10/17 05:28:53;;;;;;;14.73;12.15;;;12.50;92.80;;;;;;5034383;28;20028;-50
2022/10/17 05:31:20;;;;;;;12.50;11.20;;;12.50;92.80;;;;;;5041699;28;20112;-48
2022/10/17 05:33:49;;;;;;;14.02;12.40;;;12.50;92.80;;;;;;5050914;28;20115;-49
2022/10/17 05:36:22;;;;;;;17.70;12.60;;;12.50;92.80;;;;;;5051807;28;20543;-50
2022/10/17 05:38:52;;;;;;;14.95;13.50;;;12.50;92.90;;;;;;5035652;28;20116;-49
2022/10/17 05:41:18;;;;;;;15.60;13.07;;;12.60;93.00;;;;;;5054259;28;20350;-50
2022/10/17 05:43:45;;;;;;;14.13;12.70;;;12.50;93.00;;;;;;5024860;28;20039;-53
2022/10/17 05:46:11;;;;;;;14.55;13.05;;;12.60;93.00;;;;;;5023127;28;20136;-49
2022/10/17 05:48:39;;;;;;;15.65;13.02;;;12.60;93.10;;;;;;5032649;28;20101;-48
2022/10/17 05:51:08;;;;;;;17.85;13.82;;;12.60;93.00;;;;;;5033371;28;20451;-48
2022/10/17 05:53:38;;;;;;;16.08;12.73;;;12.60;93.10;;;;;;5033545;28;20026;-50
2022/10/17 05:56:07;;;;;;;14.68;12.85;;;12.60;93.10;;;;;;5031305;28;20025;-49
2022/10/17 05:58:43;;;;;;;15.70;14.07;;;12.50;93.10;;;;;;5033965;28;20040;-49
2022/10/17 06:01:11;;;;;;;16.98;14.68;;;12.60;93.20;;;;;;5031283;28;20033;-46
2022/10/17 06:03:38;;;;;;;14.40;13.02;;;12.60;93.20;;;;;;5031405;28;20508;-49
2022/10/17 06:06:11;;;;;;;18.30;13.43;;;12.60;93.20;;;;;;5031447;28;20021;-52
2022/10/17 06:08:38;;;;;;;16.15;14.52;;;12.60;93.30;;;;;;5025187;28;20049;-50
2022/10/17 06:11:05;;;;;;;16.60;14.65;;;12.60;93.40;;;;;;5031750;28;20029;-52
2022/10/17 06:13:32;;;;;;;15.35;13.85;;;12.70;93.40;;;;;;5031385;28;20098;-53
2022/10/17 06:15:59;;;;;;;16.17;14.63;;;12.80;93.40;;;;;;5032283;28;20030;-52
2022/10/17 06:18:25;;;;;;;17.70;14.05;;;12.80;93.40;;;;;;5032671;28;20044;-49
2022/10/17 06:20:52;;;;;;;15.82;14.15;;;12.80;93.40;;;;;;5031741;28;20347;-50
2022/10/17 06:23:19;;;;;;;15.88;14.32;;;12.90;93.40;;;;;;5030096;28;20100;-49
2022/10/17 06:25:50;;;;;;;14.88;13.38;;;12.90;93.40;;;;;;5032239;28;20024;-47
2022/10/17 06:28:16;;;;;;;16.33;13.90;;;12.90;93.40;;;;;;5032177;28;20107;-50
2022/10/17 06:30:44;;;;;;;15.65;13.85;;;12.90;93.40;;;;;;5031942;28;20037;-47
2022/10/17 06:33:11;;;;;;;17.20;13.68;;;12.90;93.40;;;;;;5031400;28;20064;-49
2022/10/17 06:35:37;;;;;;;15.55;12.85;;;12.90;93.30;;;;;;5019453;28;20053;-51
2022/10/17 06:38:04;;;;;;;16.73;14.30;;;12.90;93.30;;;;;;5023090;28;20029;-52
2022/10/17 06:40:32;;;;;;;15.07;13.55;;;12.90;93.30;;;;;;5032432;28;20040;-47
2022/10/17 06:42:58;;;;;;;18.08;13.18;;;13.00;93.30;;;;;;5031250;28;20037;-49
2022/10/17 06:45:25;;;;;;;13.68;12.30;;;13.00;93.30;;;;;;5037103;28;20178;-46
2022/10/17 06:47:52;;;;;;;19.65;12.15;;;13.00;93.30;;;;;;5050606;28;20028;-51
2022/10/17 06:50:19;;;;;;;15.35;13.05;;;13.10;93.40;;;;;;5052334;28;20350;-51
2022/10/17 06:52:49;;;;;;;13.70;12.07;;;13.20;93.30;;;;;;5049433;28;20033;-50
2022/10/17 06:55:18;;;;;;;13.32;12.13;;;13.20;93.30;;;;;;5035565;28;20691;-50
2022/10/17 06:57:43;;;;;;;15.13;11.18;;;13.30;93.20;;;;;;5041005;28;20025;-50
2022/10/17 07:00:11;;;;;;;12.57;11.07;;;13.30;93.20;;;;;;5023478;28;20057;-50
2022/10/17 07:02:38;;;;;;;17.35;10.70;;;13.30;93.10;;;;;;5047055;28;20036;-48
2022/10/17 07:05:05;;;;;;;16.45;11.60;;;13.30;93.10;;;;;;5048421;28;20025;-51
2022/10/17 07:07:32;;;;;;;11.82;10.07;;;13.40;93.10;;;;;;5047504;28;20052;-49
2022/10/17 07:09:59;;;;;;;11.60;10.25;;;13.40;93.10;;;;;;5047675;28;20024;-50
2022/10/17 07:12:26;;;;;;;15.95;11.00;;;13.40;93.00;;;;;;5047227;28;20033;-48
2022/10/17 07:14:52;;;;;;;12.18;10.15;;;13.50;93.00;;;;;;5057232;28;20037;-49
2022/10/17 07:17:19;;;;;;;13.05;10.07;;;13.50;93.00;;;;;;5047866;28;20029;-52
2022/10/17 07:19:46;;;;;;;10.50;9.18;;;13.60;93.00;;;;;;5038570;28;20057;-54
2022/10/17 07:22:12;;;;;;;14.02;11.10;;;13.70;93.10;;;;;;5035245;28;20030;-50
2022/10/17 07:24:42;;;;;;;11.65;9.48;;;13.70;92.90;;;;;;5039335;28;20074;-50
2022/10/17 07:27:09;;;;;;;11.95;9.70;;;13.70;92.90;;;;;;5039050;28;20413;-48
2022/10/17 07:29:36;;;;;;;12.65;9.18;;;13.80;92.90;;;;;;5048094;28;20508;-48
2022/10/17 07:32:05;;;;;;;11.73;9.95;;;13.80;92.80;;;;;;5043933;28;20028;-49
2022/10/17 07:34:32;;;;;;;12.88;10.00;;;13.90;92.80;;;;;;5035445;28;20171;-48
2022/10/17 07:37:00;;;;;;;11.48;9.40;;;13.90;92.70;;;;;;5037024;28;20057;-49
2022/10/17 07:39:30;;;;;;;9.95;8.85;;;13.90;92.60;;;;;;5048699;28;20048;-49
2022/10/17 07:41:57;;;;;;;;;;;14.00;92.50;;;;;;5035046;28;20430;-50
2022/10/17 07:44:24;;;;;;;10.43;9.35;;;14.00;92.60;;;;;;5037831;28;21622;-53
2022/10/17 07:46:51;;;;;;;22.13;9.80;;;14.00;92.50;;;;;;5021914;28;20085;-47
2022/10/17 07:49:20;;;;;;;10.82;9.57;;;14.10;92.50;;;;;;5024100;28;20037;-51
2022/10/17 07:51:47;;;;;;;10.70;8.70;;;14.10;92.50;;;;;;5016178;28;20030;-47
2022/10/17 07:54:14;;;;;;;10.65;9.43;;;14.10;92.50;;;;;;5012787;28;20029;-50
2022/10/17 07:56:42;;;;;;;10.85;9.45;;;14.20;92.50;;;;;;5033901;28;20044;-48
2022/10/17 07:59:09;;;;;;;10.95;9.05;;;14.30;92.40;;;;;;5027015;28;20034;-50
2022/10/17 08:01:36;;;;;;;10.00;9.10;;;14.40;92.40;;;;;;5034748;28;20060;-47
2022/10/17 08:04:03;;;;;;;10.32;8.05;;;14.50;92.30;;;;;;5021612;28;20025;-48
2022/10/17 08:06:30;;;;;;;11.02;9.93;;;14.60;92.10;;;;;;5019772;28;20026;-48
2022/10/17 08:08:58;;;;;;;14.70;8.65;;;14.70;91.90;;;;;;5030860;28;20645;-50
2022/10/17 08:11:24;;;;;;;14.73;8.70;;;14.80;91.70;;;;;;5028119;28;20037;-51
2022/10/17 08:13:49;;;;;;;13.63;8.68;;;14.90;91.60;;;;;;5033877;28;20029;-53
2022/10/17 08:16:16;;;;;;;8.85;7.80;;;15.00;91.40;;;;;;5035211;28;20033;-53
2022/10/17 08:18:43;;;;;;;9.25;7.50;;;15.10;91.30;;;;;;5024098;28;20032;-49
2022/10/17 08:21:12;;;;;;;10.98;7.90;;;15.20;91.10;;;;;;5031842;28;20025;-48
2022/10/17 08:23:45;;;;;;;13.98;8.63;;;15.30;91.00;;;;;;5050290;28;20041;-51
2022/10/17 08:26:16;;;;;;;9.45;8.07;;;15.70;91.10;;;;;;5047029;28;20483;-49
2022/10/17 08:28:42;;;;;;;14.57;8.10;;;15.90;90.50;;;;;;5017466;28;20029;-51
2022/10/17 08:31:11;;;;;;;7.85;6.57;;;16.00;89.90;;;;;;5034605;28;20025;-47
2022/10/17 08:33:38;;;;;;;7.68;6.97;;;16.00;89.60;;;;;;5034240;28;20029;-49
2022/10/17 08:36:07;;;;;;;7.47;6.38;;;16.10;89.60;;;;;;5027938;28;20187;-49
2022/10/17 08:38:38;;;;;;;11.10;6.82;;;16.10;89.50;;;;;;5031245;28;20033;-52
2022/10/17 08:41:12;;;;;;;15.07;7.55;;;16.20;89.70;;;;;;5033237;28;20032;-50
2022/10/17 08:44:15;;;;;;;8.88;7.97;;;16.20;89.80;;;;;;5017645;28;20017;-49
2022/10/17 08:46:46;;;;;;;8.38;7.32;;;16.20;89.80;;;;;;5035669;28;20156;-48
2022/10/17 08:49:51;;;;;;;11.93;7.35;;;16.30;89.90;;;;;;5052382;28;20033;-51
2022/10/17 08:52:36;;;;;;;9.65;8.65;;;16.40;89.80;;;;;;5054067;28;20037;-49
2022/10/17 08:55:16;;;;;;;8.43;7.63;;;16.60;90.00;;;;;;5051804;28;20116;-47
2022/10/17 08:57:43;;;;;;;8.93;7.97;;;16.90;89.40;;;;;;5053569;28;20489;-52
2022/10/17 09:00:18;;;;;;;10.60;7.05;;;17.30;88.90;;;;;;5052696;28;20051;-49
2022/10/17 09:03:05;;;;;;;9.85;7.03;;;17.40;88.00;;;;;;5045766;28;20026;-50
2022/10/17 09:05:39;;;;;;;8.88;6.75;;;17.40;87.80;;;;;;5048475;28;20025;-51
2022/10/17 09:08:15;;;;;;;11.25;6.75;;;17.60;87.40;;;;;;5034752;28;21690;-54
2022/10/17 09:10:55;;;;;;;9.38;6.13;;;17.60;87.40;;;;;;5039314;28;20033;-48
2022/10/17 09:13:39;;;;;;;12.00;7.28;;;17.50;87.30;;;;;;5046492;28;20036;-49
2022/10/17 09:16:17;;;;;;;8.60;6.45;;;17.60;87.50;;;;;;5053664;28;20033;-49
2022/10/17 09:18:55;;;;;;;9.65;7.28;;;17.50;87.50;;;;;;5051895;28;20116;-51
2022/10/17 09:21:41;;;;;;;7.55;6.68;;;17.60;87.50;;;;;;5028762;28;20071;-51
2022/10/17 09:24:47;;;;;;;7.55;5.95;;;17.60;87.30;;;;;;5045241;28;20024;-52
2022/10/17 09:27:39;;;;;;;7.45;6.70;;;17.70;87.60;;;;;;5051800;28;20373;-51
2022/10/17 09:30:35;;;;;;;12.80;7.32;;;17.70;87.20;;;;;;5053315;28;20040;-49
2022/10/17 09:33:14;;;;;;;11.90;6.85;;;17.70;87.30;;;;;;5052519;28;20032;-50
2022/10/17 09:35:42;;;;;;;7.07;5.95;;;17.70;87.20;;;;;;5016760;28;20025;-48
2022/10/17 09:38:20;;;;;;;9.32;7.15;;;17.70;87.50;;;;;;5036467;28;20102;-54
2022/10/17 09:40:54;;;;;;;7.40;6.70;;;17.70;87.30;;;;;;5043480;28;20033;-48
2022/10/17 09:43:21;;;;;;;10.38;6.88;;;17.70;87.30;;;;;;5049097;28;20028;-51
2022/10/17 09:46:24;;;;;;;8.85;7.13;;;17.70;87.40;;;;;;5032393;28;20044;-48
2022/10/17 09:48:59;;;;;;;10.07;6.88;;;17.70;87.40;;;;;;5035356;28;20126;-53
2022/10/17 09:51:25;;;;;;;11.38;7.10;;;17.70;87.40;;;;;;5050476;28;20446;-52
2022/10/17 09:53:55;;;;;;;13.55;7.60;;;17.60;87.60;;;;;;5050338;28;20099;-53
2022/10/17 09:56:21;;;;;;;11.13;7.07;;;17.70;87.80;;;;;;5048762;28;20039;-52
2022/10/17 09:59:05;;;;;;;11.48;8.27;;;17.70;87.80;;;;;;5048218;28;20045;-49
2022/10/17 10:01:35;;;;;;;12.13;7.57;;;17.70;87.80;;;;;;5044270;28;20017;-54
2022/10/17 10:04:17;;;;;;;8.23;7.13;;;17.80;87.90;;;;;;5034174;28;20458;-52
2022/10/17 10:07:05;;;;;;;10.30;8.07;;;17.80;87.70;;;;;;5043874;28;20557;-47
2022/10/17 10:09:35;;;;;;;9.60;6.70;;;17.70;87.80;;;;;;5036868;28;20078;-50
2022/10/17 10:12:16;;;;;;;11.00;7.78;;;17.70;88.00;;;;;;5049745;28;20024;-50
2022/10/17 10:14:43;;;;;;;10.50;6.43;;;17.70;88.10;;;;;;5049752;28;20681;-52
2022/10/17 10:17:43;;;;;;;11.40;7.38;;;17.70;88.40;;;;;;5044094;28;20025;-48
2022/10/17 10:20:34;;;;;;;9.23;6.72;;;17.60;88.70;;;;;;5049188;28;20036;-50
2022/10/17 10:23:21;;;;;;;8.98;6.82;;;17.50;89.00;;;;;;5044734;28;20408;-52
2022/10/17 10:26:04;;;;;;;8.35;6.65;;;17.50;89.20;;;;;;5049762;28;20500;-53
2022/10/17 10:28:34;;;;;;;12.05;7.72;;;17.50;89.50;;;;;;5048017;28;20035;-51
2022/10/17 10:31:06;;;;;;;9.63;7.90;;;17.50;89.50;;;;;;5033574;28;20025;-48
2022/10/17 10:33:39;;;;;;;12.02;7.57;;;17.50;89.50;;;;;;5033977;28;20036;-51
2022/10/17 10:36:09;;;;;;;10.50;8.00;;;17.50;89.70;;;;;;5042843;28;20423;-52
2022/10/17 10:38:38;;;;;;;;;;;17.50;89.80;;;;;;5041790;28;20083;-47
2022/10/17 10:41:08;;;;;;;12.45;9.20;;;17.50;89.80;;;;;;5044624;28;20269;-51
2022/10/17 10:43:44;;;;;;;10.45;7.72;;;17.50;89.80;;;;;;5049114;28;20036;-51
2022/10/17 10:46:37;;;;;;;11.43;8.57;;;17.50;89.90;;;;;;5043777;28;20059;-50
2022/10/17 10:49:31;;;;;;;11.27;8.63;;;17.50;89.70;;;;;;5028300;28;20025;-52
2022/10/17 10:52:02;;;;;;;9.57;8.57;;;17.50;89.60;;;;;;5040537;28;20026;-47
2022/10/17 10:54:39;;;;;;;11.02;9.43;;;17.50;89.80;;;;;;5031422;28;20332;-49
2022/10/17 11:00:07;;;;;;;11.40;9.55;;;17.50;90.10;;;;;;5018496;28;20056;-50
2022/10/17 11:02:44;;;;;;;13.05;9.20;;;17.60;90.20;;;;;;5035288;28;20025;-50
2022/10/17 11:05:27;;;;;;;11.43;10.27;;;17.60;90.10;;;;;;5031576;28;20317;-53
2022/10/17 11:08:19;;;;;;;14.35;10.90;;;17.50;90.20;;;;;;5046439;28;20021;-51
2022/10/17 11:11:06;;;;;;;12.88;9.55;;;17.50;90.20;;;;;;5034026;28;20158;-53
2022/10/17 11:13:39;;;;;;;11.25;9.00;;;17.50;90.20;;;;;;5040714;28;20033;-54
2022/10/17 11:16:14;;;;;;;13.43;9.23;;;17.50;90.30;;;;;;5056558;28;20025;-51
2022/10/17 11:19:03;;;;;;;15.50;9.85;;;17.50;90.30;;;;;;5068893;28;20029;-50
2022/10/17 11:22:02;;;;;;;16.35;10.05;;;17.50;90.40;;;;;;5049648;28;20025;-52
2022/10/17 11:24:55;;;;;;;15.60;10.13;;;17.50;90.30;;;;;;5057613;28;20130;-50
2022/10/17 11:27:24;;;;;;;12.50;10.73;;;17.50;90.60;;;;;;5030813;28;20052;-49
2022/10/17 11:29:50;;;;;;;13.95;11.18;;;17.50;90.50;;;;;;5023842;28;20446;-52
2022/10/17 11:32:38;;;;;;;13.18;9.85;;;17.50;90.70;;;;;;5026383;28;20053;-52
2022/10/17 11:35:21;;;;;;;18.17;10.52;;;17.40;90.70;;;;;;5046563;28;20056;-52
2022/10/17 11:37:54;;;;;;;12.30;10.18;;;17.40;90.80;;;;;;5020021;28;20462;-51
2022/10/17 11:40:34;;;;;;;16.10;12.85;;;17.40;90.90;;;;;;5060192;28;20038;-49
2022/10/17 11:43:04;;;;;;;12.27;10.50;;;17.40;91.10;;;;;;5031266;28;20468;-50
2022/10/17 11:45:39;;;;;;;13.77;11.25;;;17.30;91.10;;;;;;5051157;28;20067;-54
2022/10/17 11:48:21;;;;;;;12.80;11.63;;;17.30;91.20;;;;;;5043164;28;20595;-59
2022/10/17 11:50:56;;;;;;;12.75;11.45;;;17.20;91.40;;;;;;5047832;28;20088;-62
2022/10/17 11:53:27;;;;;;;16.02;12.15;;;17.20;91.50;;;;;;5070987;28;20032;-62
2022/10/17 11:55:58;;;;;;;12.40;11.10;;;17.20;91.80;;;;;;5034986;28;20033;-62
2022/10/17 11:58:42;;;;;;;13.25;11.00;;;17.10;91.90;;;;;;5042063;28;20055;-61
2022/10/17 12:01:10;;;;;;;13.38;11.38;;;17.10;92.00;;;;;;5041199;28;20046;-60
2022/10/17 12:04:14;;;;;;;13.55;11.63;;;17.10;92.10;;;;;;5034221;28;20045;-60
2022/10/17 12:07:11;;;;;;;14.00;11.88;;;17.00;92.20;;;;;;5040928;28;20120;-62
2022/10/17 12:09:40;;;;;;;15.43;13.80;;;17.00;92.40;;;;;;5052067;28;20378;-63
2022/10/17 12:12:07;;;;;;;15.02;12.30;;;16.90;92.50;;;;;;5053685;28;20052;-62
2022/10/17 12:14:37;;;;;;;13.60;12.32;;;16.90;92.70;;;;;;5043964;28;20029;-62
2022/10/17 12:17:21;;;;;;;14.02;12.60;;;16.90;92.80;;;;;;5049548;28;20079;-61
2022/10/17 12:19:48;;;;;;;15.70;13.15;;;16.90;92.90;;;;;;5046493;28;20030;-59
2022/10/17 12:22:19;;;;;;;15.40;12.95;;;16.90;93.10;;;;;;5056102;28;20434;-57
2022/10/17 12:25:15;;;;;;;15.57;13.88;;;16.90;93.20;;;;;;5047042;28;20040;-56
2022/10/17 12:27:47;;;;;;;15.30;13.43;;;16.90;93.20;;;;;;5052567;28;20108;-55
2022/10/17 12:30:24;;;;;;;15.63;14.02;;;16.90;93.20;;;;;;5051587;28;20042;-55
2022/10/17 12:33:11;;;;;;;15.27;13.18;;;16.90;93.30;;;;;;5049314;28;20028;-51
2022/10/17 12:35:37;;;;;;;16.20;14.00;;;16.90;93.40;;;;;;5050350;28;20155;-56
2022/10/17 12:38:23;;;;;;;16.85;15.02;;;17.00;93.50;;;;;;5035851;28;20029;-56
2022/10/17 12:40:52;;;;;;;16.25;14.73;;;17.00;93.50;;;;;;5048039;28;20108;-52
2022/10/17 12:43:30;;;;;;;16.70;15.10;;;17.10;93.50;;;;;;5034033;28;20063;-57
2022/10/17 12:46:02;;;;;;;15.85;14.15;;;17.10;93.50;;;;;;5049167;28;20060;-55
2022/10/17 12:48:36;;;;;;;16.85;15.32;;;17.10;93.50;;;;;;5043200;28;20040;-53
2022/10/17 12:51:21;;;;;;;15.48;13.98;;;17.10;93.50;;;;;;5052572;28;20036;-58
2022/10/17 12:54:13;;;;;;;16.27;14.45;;;17.10;93.50;;;;;;5050664;28;20021;-60
2022/10/17 12:56:45;;;;;;;17.35;15.57;;;17.10;93.50;;;;;;5054354;28;20346;-58
2022/10/17 12:59:22;;;;;;;25.83;14.88;;;17.10;93.60;;;;;;5051518;28;20021;-52
2022/10/17 13:01:58;;;;;;;15.85;14.13;;;17.20;93.70;;;;;;5036462;28;20025;-49
2022/10/17 13:04:29;;;;;;;17.30;15.55;;;17.20;93.70;;;;;;5053999;28;20047;-51
2022/10/17 13:06:57;;;;;;;15.23;13.73;;;17.30;93.70;;;;;;5057280;28;20468;-56
2022/10/17 13:09:46;;;;;;;16.60;14.93;;;17.40;93.70;;;;;;5043857;28;20038;-56
2022/10/17 13:12:20;;;;;;;17.25;12.73;;;17.40;93.60;;;;;;5026719;28;20447;-55